sensor_id;sensor_type;location;lat;lon;timestamp;pressure;altitude;pressure_sealevel;temperature;humidity
85836;BME280;76292;47.678;19.066;2024-03-08T00:01:42;100461.16;;;4.34;91.10
85836;BME280;76292;47.678;19.066;2024-03-08T00:03:45;100469.34;;;4.34;90.75
85836;BME280;76292;47.678;19.066;2024-03-08T00:05:45;100475.06;;;4.39;90.59
85836;BME280;76292;47.678;19.066;2024-03-08T00:07:45;100473.38;;;4.38;89.64
85836;BME280;76292;47.678;19.066;2024-03-08T00:09:46;100471.06;;;4.42;89.10
85836;BME280;76292;47.678;19.066;2024-03-08T00:11:49;100463.28;;;4.39;90.30
85836;BME280;76292;47.678;19.066;2024-03-08T00:13:52;100464.75;;;4.41;89.70
85836;BME280;76292;47.678;19.066;2024-03-08T00:15:53;100469.59;;;4.39;90.21
85836;BME280;76292;47.678;19.066;2024-03-08T00:17:56;100469.19;;;4.42;90.45
85836;BME280;76292;47.678;19.066;2024-03-08T00:19:56;100471.25;;;4.40;90.94
85836;BME280;76292;47.678;19.066;2024-03-08T00:21:57;100470.19;;;4.35;92.15
85836;BME280;76292;47.678;19.066;2024-03-08T00:24:00;100471.88;;;4.36;90.96
85836;BME280;76292;47.678;19.066;2024-03-08T00:26:01;100477.75;;;4.33;91.50
85836;BME280;76292;47.678;19.066;2024-03-08T00:28:01;100468.09;;;4.30;92.95
85836;BME280;76292;47.678;19.066;2024-03-08T00:30:08;100465.41;;;4.43;92.39
85836;BME280;76292;47.678;19.066;2024-03-08T00:32:08;100469.63;;;4.52;89.29
85836;BME280;76292;47.678;19.066;2024-03-08T00:34:09;100464.59;;;4.56;89.66
85836;BME280;76292;47.678;19.066;2024-03-08T00:36:11;100466.69;;;4.54;89.40
85836;BME280;76292;47.678;19.066;2024-03-08T00:38:12;100454.09;;;4.53;90.38
85836;BME280;76292;47.678;19.066;2024-03-08T00:40:13;100463.72;;;4.49;90.24
85836;BME280;76292;47.678;19.066;2024-03-08T00:42:14;100456.34;;;4.43;89.68
85836;BME280;76292;47.678;19.066;2024-03-08T00:44:16;100467.72;;;4.46;90.71
85836;BME280;76292;47.678;19.066;2024-03-08T00:46:17;100467.72;;;4.46;91.90
85836;BME280;76292;47.678;19.066;2024-03-08T00:48:17;100460.16;;;4.55;90.97
85836;BME280;76292;47.678;19.066;2024-03-08T00:50:17;100450.28;;;4.47;91.63
85836;BME280;76292;47.678;19.066;2024-03-08T00:52:18;100456.63;;;4.61;92.08
85836;BME280;76292;47.678;19.066;2024-03-08T00:54:19;100459.16;;;4.62;90.93
85836;BME280;76292;47.678;19.066;2024-03-08T00:56:19;100455.16;;;4.58;90.64
85836;BME280;76292;47.678;19.066;2024-03-08T00:58:20;100459.16;;;4.62;91.64
85836;BME280;76292;47.678;19.066;2024-03-08T01:00:21;100454.72;;;4.61;90.08
85836;BME280;76292;47.678;19.066;2024-03-08T01:02:24;100457.06;;;4.64;89.51
85836;BME280;76292;47.678;19.066;2024-03-08T01:04:25;100455.16;;;4.65;90.63
85836;BME280;76292;47.678;19.066;2024-03-08T01:06:28;100453.88;;;4.61;89.32
85836;BME280;76292;47.678;19.066;2024-03-08T01:08:28;100453.25;;;4.59;89.05
85836;BME280;76292;47.678;19.066;2024-03-08T01:10:33;100446.09;;;4.51;90.11
85836;BME280;76292;47.678;19.066;2024-03-08T01:12:33;100447.56;;;4.47;90.69
85836;BME280;76292;47.678;19.066;2024-03-08T01:14:34;100453.63;;;4.43;90.40
85836;BME280;76292;47.678;19.066;2024-03-08T01:16:37;100444.00;;;4.53;92.37
85836;BME280;76292;47.678;19.066;2024-03-08T01:18:40;100445.69;;;4.48;91.51
85836;BME280;76292;47.678;19.066;2024-03-08T01:20:43;100449.44;;;4.47;92.40
85836;BME280;76292;47.678;19.066;2024-03-08T01:22:45;100443.78;;;4.55;91.51
85836;BME280;76292;47.678;19.066;2024-03-08T01:24:46;100453.47;;;4.64;89.98
85836;BME280;76292;47.678;19.066;2024-03-08T01:26:46;100449.72;;;4.65;91.04
85836;BME280;76292;47.678;19.066;2024-03-08T01:28:47;100446.97;;;4.58;91.04
85836;BME280;76292;47.678;19.066;2024-03-08T01:30:47;100453.06;;;4.54;91.44
85836;BME280;76292;47.678;19.066;2024-03-08T01:32:50;100451.56;;;4.58;90.06
85836;BME280;76292;47.678;19.066;2024-03-08T01:34:50;100451.97;;;4.55;91.06
85836;BME280;76292;47.678;19.066;2024-03-08T01:36:51;100449.66;;;4.52;91.90
85836;BME280;76292;47.678;19.066;2024-03-08T01:38:52;100445.69;;;4.54;91.55
85836;BME280;76292;47.678;19.066;2024-03-08T01:40:58;100443.59;;;4.63;91.58
85836;BME280;76292;47.678;19.066;2024-03-08T01:43:20;100455.16;;;4.65;92.48
85836;BME280;76292;47.678;19.066;2024-03-08T01:45:21;100444.66;;;4.62;91.51
85836;BME280;76292;47.678;19.066;2024-03-08T01:47:22;100441.72;;;4.63;91.03
85836;BME280;76292;47.678;19.066;2024-03-08T01:49:26;100446.97;;;4.58;91.48
85836;BME280;76292;47.678;19.066;2024-03-08T01:51:29;100437.28;;;4.49;91.19
85836;BME280;76292;47.678;19.066;2024-03-08T01:53:31;100444.44;;;4.50;91.55
85836;BME280;76292;47.678;19.066;2024-03-08T01:55:32;100444.63;;;4.49;91.68
85836;BME280;76292;47.678;19.066;2024-03-08T01:57:37;100443.38;;;4.45;91.80
85836;BME280;76292;47.678;19.066;2024-03-08T01:59:41;100444.41;;;4.44;91.96
85836;BME280;76292;47.678;19.066;2024-03-08T02:01:44;100442.09;;;4.47;91.36
85836;BME280;76292;47.678;19.066;2024-03-08T02:03:44;100445.28;;;4.64;90.95
85836;BME280;76292;47.678;19.066;2024-03-08T02:05:46;100444.84;;;4.54;91.30
85836;BME280;76292;47.678;19.066;2024-03-08T02:07:47;100445.69;;;4.54;91.12
85836;BME280;76292;47.678;19.066;2024-03-08T02:09:49;100442.78;;;4.62;90.49
85836;BME280;76292;47.678;19.066;2024-03-08T02:11:51;100440.66;;;4.64;89.49
85836;BME280;76292;47.678;19.066;2024-03-08T02:13:53;100445.28;;;4.64;90.07
85836;BME280;76292;47.678;19.066;2024-03-08T02:15:56;100447.81;;;4.59;91.21
85836;BME280;76292;47.678;19.066;2024-03-08T02:17:59;100447.81;;;4.59;91.37
85836;BME280;76292;47.678;19.066;2024-03-08T02:20:00;100439.41;;;4.54;92.49
85836;BME280;76292;47.678;19.066;2024-03-08T02:22:05;100441.47;;;4.52;90.58
85836;BME280;76292;47.678;19.066;2024-03-08T02:24:06;100443.59;;;4.63;90.41
85836;BME280;76292;47.678;19.066;2024-03-08T02:26:06;100445.72;;;4.68;89.28
85836;BME280;76292;47.678;19.066;2024-03-08T02:28:11;100443.41;;;4.64;88.46
85836;BME280;76292;47.678;19.066;2024-03-08T02:30:14;100452.66;;;4.70;89.20
85836;BME280;76292;47.678;19.066;2024-03-08T02:32:14;100448.66;;;4.73;89.52
85836;BME280;76292;47.678;19.066;2024-03-08T02:34:15;100446.56;;;4.68;90.85
85836;BME280;76292;47.678;19.066;2024-03-08T02:36:18;100457.25;;;4.63;91.50
85836;BME280;76292;47.678;19.066;2024-03-08T02:38:20;100453.88;;;4.61;91.62
85836;BME280;76292;47.678;19.066;2024-03-08T02:40:20;100450.53;;;4.59;92.68
85836;BME280;76292;47.678;19.066;2024-03-08T02:42:24;100446.53;;;4.55;92.35
85836;BME280;76292;47.678;19.066;2024-03-08T02:44:25;100453.47;;;4.51;91.84
85836;BME280;76292;47.678;19.066;2024-03-08T02:46:27;100449.06;;;4.56;92.27
85836;BME280;76292;47.678;19.066;2024-03-08T02:48:28;100451.78;;;4.63;90.34
85836;BME280;76292;47.678;19.066;2024-03-08T02:50:28;100455.78;;;4.60;91.13
85836;BME280;76292;47.678;19.066;2024-03-08T02:52:29;100450.97;;;4.69;90.83
85836;BME280;76292;47.678;19.066;2024-03-08T02:54:29;100463.97;;;4.60;91.46
85836;BME280;76292;47.678;19.066;2024-03-08T02:56:32;100454.09;;;4.53;92.33
85836;BME280;76292;47.678;19.066;2024-03-08T02:58:35;100455.59;;;4.62;92.24
85836;BME280;76292;47.678;19.066;2024-03-08T03:00:40;100454.53;;;4.56;92.57
85836;BME280;76292;47.678;19.066;2024-03-08T03:02:41;100458.91;;;4.51;92.87
85836;BME280;76292;47.678;19.066;2024-03-08T03:04:42;100453.06;;;4.67;92.74
85836;BME280;76292;47.678;19.066;2024-03-08T03:06:43;100450.53;;;4.72;91.49
85836;BME280;76292;47.678;19.066;2024-03-08T03:08:43;100454.53;;;4.70;92.02
85836;BME280;76292;47.678;19.066;2024-03-08T03:10:47;100450.94;;;4.56;92.08
85836;BME280;76292;47.678;19.066;2024-03-08T03:12:48;100459.16;;;4.62;91.89
85836;BME280;76292;47.678;19.066;2024-03-08T03:14:49;100458.06;;;4.57;92.80
85836;BME280;76292;47.678;19.066;2024-03-08T03:16:49;100464.78;;;4.54;92.91
85836;BME280;76292;47.678;19.066;2024-03-08T03:18:50;100457.91;;;4.65;92.23
85836;BME280;76292;47.678;19.066;2024-03-08T03:20:50;100464.59;;;4.69;91.80
85836;BME280;76292;47.678;19.066;2024-03-08T03:22:53;100467.75;;;4.66;90.82
85836;BME280;76292;47.678;19.066;2024-03-08T03:24:54;100468.81;;;4.72;89.41
85836;BME280;76292;47.678;19.066;2024-03-08T03:26:54;100472.16;;;4.60;90.42
85836;BME280;76292;47.678;19.066;2024-03-08T03:28:55;100472.16;;;4.54;91.46
85836;BME280;76292;47.678;19.066;2024-03-08T03:30:55;100478.25;;;4.56;91.68
85836;BME280;76292;47.678;19.066;2024-03-08T03:33:02;100477.81;;;4.52;92.47
85836;BME280;76292;47.678;19.066;2024-03-08T03:35:09;100468.16;;;4.63;92.22
85836;BME280;76292;47.678;19.066;2024-03-08T03:37:10;100473.84;;;4.61;88.51
85836;BME280;76292;47.678;19.066;2024-03-08T03:39:13;100471.09;;;4.55;91.76
85836;BME280;76292;47.678;19.066;2024-03-08T03:41:16;100464.63;;;4.62;92.55
85836;BME280;76292;47.678;19.066;2024-03-08T03:43:18;100470.06;;;4.69;91.10
85836;BME280;76292;47.678;19.066;2024-03-08T03:45:19;100467.75;;;4.66;89.74
85836;BME280;76292;47.678;19.066;2024-03-08T03:47:20;100468.81;;;4.65;90.34
85836;BME280;76292;47.678;19.066;2024-03-08T03:49:21;100474.69;;;4.62;91.73
85836;BME280;76292;47.678;19.066;2024-03-08T03:51:21;100462.50;;;4.64;91.53
85836;BME280;76292;47.678;19.066;2024-03-08T03:53:22;100463.97;;;4.67;90.70
85836;BME280;76292;47.678;19.066;2024-03-08T03:55:22;100464.59;;;4.69;91.99
85836;BME280;76292;47.678;19.066;2024-03-08T03:57:25;100461.88;;;4.56;90.92
85836;BME280;76292;47.678;19.066;2024-03-08T03:59:28;100461.22;;;4.47;91.76
85836;BME280;76292;47.678;19.066;2024-03-08T04:01:29;100462.72;;;4.56;92.69
85836;BME280;76292;47.678;19.066;2024-03-08T04:03:29;100467.94;;;4.58;91.05
85836;BME280;76292;47.678;19.066;2024-03-08T04:05:30;100470.91;;;4.63;90.00
85836;BME280;76292;47.678;19.066;2024-03-08T04:07:31;100474.66;;;4.55;90.40
85836;BME280;76292;47.678;19.066;2024-03-08T04:09:34;100460.63;;;4.65;88.86
85836;BME280;76292;47.678;19.066;2024-03-08T04:11:35;100466.72;;;4.67;89.84
85836;BME280;76292;47.678;19.066;2024-03-08T04:13:42;100467.34;;;4.62;90.11
85836;BME280;76292;47.678;19.066;2024-03-08T04:15:43;100469.63;;;4.65;89.73
85836;BME280;76292;47.678;19.066;2024-03-08T04:17:44;100470.06;;;4.69;89.94
85836;BME280;76292;47.678;19.066;2024-03-08T04:19:45;100469.66;;;4.59;91.13
85836;BME280;76292;47.678;19.066;2024-03-08T04:21:50;100466.28;;;4.63;90.54
85836;BME280;76292;47.678;19.066;2024-03-08T04:23:52;100472.16;;;4.60;90.80
85836;BME280;76292;47.678;19.066;2024-03-08T04:25:55;100465.03;;;4.59;89.37
85836;BME280;76292;47.678;19.066;2024-03-08T04:27:55;100464.19;;;4.59;88.62
85836;BME280;76292;47.678;19.066;2024-03-08T04:29:55;100478.03;;;4.57;88.76
85836;BME280;76292;47.678;19.066;2024-03-08T04:31:59;100475.53;;;4.56;89.42
85836;BME280;76292;47.678;19.066;2024-03-08T04:33:59;100474.91;;;4.54;89.41
85836;BME280;76292;47.678;19.066;2024-03-08T04:36:00;100476.13;;;4.51;87.36
85836;BME280;76292;47.678;19.066;2024-03-08T04:38:00;100474.22;;;4.52;88.29
85836;BME280;76292;47.678;19.066;2024-03-08T04:40:00;100478.63;;;4.46;89.74
85836;BME280;76292;47.678;19.066;2024-03-08T04:42:02;100478.03;;;4.51;90.38
85836;BME280;76292;47.678;19.066;2024-03-08T04:44:11;100480.09;;;4.49;90.85
85836;BME280;76292;47.678;19.066;2024-03-08T04:46:12;100479.06;;;4.50;90.61
85836;BME280;76292;47.678;19.066;2024-03-08T04:48:13;100480.53;;;4.52;89.87
85836;BME280;76292;47.678;19.066;2024-03-08T04:50:13;100481.38;;;4.40;90.38
85836;BME280;76292;47.678;19.066;2024-03-08T04:52:16;100485.53;;;4.36;90.95
85836;BME280;76292;47.678;19.066;2024-03-08T04:54:19;100483.03;;;4.41;91.58
85836;BME280;76292;47.678;19.066;2024-03-08T04:56:19;100479.69;;;4.52;90.53
85836;BME280;76292;47.678;19.066;2024-03-08T04:58:19;100472.34;;;4.52;89.49
85836;BME280;76292;47.678;19.066;2024-03-08T05:00:21;100485.56;;;4.49;89.04
85836;BME280;76292;47.678;19.066;2024-03-08T05:02:21;100482.66;;;4.50;89.69
85836;BME280;76292;47.678;19.066;2024-03-08T05:04:22;100480.34;;;4.54;88.97
85836;BME280;76292;47.678;19.066;2024-03-08T05:06:23;100476.13;;;4.45;90.17
85836;BME280;76292;47.678;19.066;2024-03-08T05:08:26;100476.75;;;4.47;88.71
85836;BME280;76292;47.678;19.066;2024-03-08T05:10:26;100479.69;;;4.45;89.24
85836;BME280;76292;47.678;19.066;2024-03-08T05:12:27;100480.28;;;4.41;88.72
85836;BME280;76292;47.678;19.066;2024-03-08T05:14:27;100487.22;;;4.43;89.63
85836;BME280;76292;47.678;19.066;2024-03-08T05:16:28;100480.09;;;4.42;89.47
85836;BME280;76292;47.678;19.066;2024-03-08T05:18:29;100481.16;;;4.41;89.20
85836;BME280;76292;47.678;19.066;2024-03-08T05:20:32;100484.09;;;4.40;89.66
85836;BME280;76292;47.678;19.066;2024-03-08T05:22:32;100491.63;;;4.38;88.60
85836;BME280;76292;47.678;19.066;2024-03-08T05:24:33;100480.53;;;4.39;89.69
85836;BME280;76292;47.678;19.066;2024-03-08T05:26:36;100484.25;;;4.32;90.17
85836;BME280;76292;47.678;19.066;2024-03-08T05:28:39;100485.09;;;4.32;89.46
85836;BME280;76292;47.678;19.066;2024-03-08T05:30:40;100486.97;;;4.32;89.35
85836;BME280;76292;47.678;19.066;2024-03-08T05:32:43;100497.31;;;4.36;90.06
85836;BME280;76292;47.678;19.066;2024-03-08T05:34:47;100498.56;;;4.34;90.19
85836;BME280;76292;47.678;19.066;2024-03-08T05:36:52;100493.91;;;4.28;90.18
85836;BME280;76292;47.678;19.066;2024-03-08T05:38:54;100490.13;;;4.29;89.55
85836;BME280;76292;47.678;19.066;2024-03-08T05:40:55;100499.38;;;4.28;89.52
85836;BME280;76292;47.678;19.066;2024-03-08T05:42:55;100492.84;;;4.22;89.28
85836;BME280;76292;47.678;19.066;2024-03-08T05:44:55;100505.00;;;4.26;89.55
85836;BME280;76292;47.678;19.066;2024-03-08T05:46:59;100502.50;;;4.25;89.64
85836;BME280;76292;47.678;19.066;2024-03-08T05:49:00;100500.41;;;4.27;89.57
85836;BME280;76292;47.678;19.066;2024-03-08T05:51:05;100509.00;;;4.24;90.56
85836;BME280;76292;47.678;19.066;2024-03-08T05:53:05;100509.44;;;4.27;89.91
85836;BME280;76292;47.678;19.066;2024-03-08T05:55:09;100512.56;;;4.24;89.60
85836;BME280;76292;47.678;19.066;2024-03-08T05:57:12;100519.06;;;4.23;89.94
85836;BME280;76292;47.678;19.066;2024-03-08T05:59:15;100515.25;;;4.18;89.86
85836;BME280;76292;47.678;19.066;2024-03-08T06:01:18;100518.41;;;4.15;89.44
85836;BME280;76292;47.678;19.066;2024-03-08T06:03:18;100520.94;;;4.16;89.20
85836;BME280;76292;47.678;19.066;2024-03-08T06:05:21;100522.81;;;4.16;89.48
85836;BME280;76292;47.678;19.066;2024-03-08T06:07:23;100517.31;;;4.09;88.70
85836;BME280;76292;47.678;19.066;2024-03-08T06:09:24;100518.41;;;4.15;88.62
85836;BME280;76292;47.678;19.066;2024-03-08T06:11:27;100525.75;;;4.14;89.13
85836;BME280;76292;47.678;19.066;2024-03-08T06:13:28;100527.25;;;4.17;90.21
85836;BME280;76292;47.678;19.066;2024-03-08T06:15:31;100536.06;;;4.19;89.09
85836;BME280;76292;47.678;19.066;2024-03-08T06:17:32;100531.84;;;4.16;89.03
85836;BME280;76292;47.678;19.066;2024-03-08T06:19:32;100529.97;;;4.17;89.62
85836;BME280;76292;47.678;19.066;2024-03-08T06:21:33;100532.03;;;4.15;89.58
85836;BME280;76292;47.678;19.066;2024-03-08T06:23:33;100530.59;;;4.19;89.17
85836;BME280;76292;47.678;19.066;2024-03-08T06:25:34;100534.19;;;4.26;89.11
85836;BME280;76292;47.678;19.066;2024-03-08T06:27:35;100533.78;;;4.22;88.56
85836;BME280;76292;47.678;19.066;2024-03-08T06:29:35;100532.53;;;4.25;89.05
85836;BME280;76292;47.678;19.066;2024-03-08T06:31:35;100525.38;;;4.24;89.31
85836;BME280;76292;47.678;19.066;2024-03-08T06:33:39;100538.78;;;4.19;90.58
85836;BME280;76292;47.678;19.066;2024-03-08T06:35:39;100534.19;;;4.26;89.74
85836;BME280;76292;47.678;19.066;2024-03-08T06:37:39;100533.97;;;4.21;87.51
85836;BME280;76292;47.678;19.066;2024-03-08T06:39:40;100538.38;;;4.22;88.62
85836;BME280;76292;47.678;19.066;2024-03-08T06:41:40;100542.59;;;4.24;87.91
85836;BME280;76292;47.678;19.066;2024-03-08T06:43:42;100539.00;;;4.24;88.34
85836;BME280;76292;47.678;19.066;2024-03-08T06:45:45;100538.78;;;4.19;87.18
85836;BME280;76292;47.678;19.066;2024-03-08T06:47:50;100543.63;;;4.23;88.52
85836;BME280;76292;47.678;19.066;2024-03-08T06:49:55;100548.91;;;4.25;88.74
85836;BME280;76292;47.678;19.066;2024-03-08T06:51:55;100550.56;;;4.26;87.60
85836;BME280;76292;47.678;19.066;2024-03-08T06:53:57;100547.66;;;4.27;87.52
85836;BME280;76292;47.678;19.066;2024-03-08T06:55:58;100555.22;;;4.32;88.46
85836;BME280;76292;47.678;19.066;2024-03-08T06:57:58;100549.34;;;4.28;88.07
85836;BME280;76292;47.678;19.066;2024-03-08T06:59:59;100549.53;;;4.27;88.20
85836;BME280;76292;47.678;19.066;2024-03-08T07:02:01;100545.09;;;4.26;87.43
85836;BME280;76292;47.678;19.066;2024-03-08T07:04:02;100548.94;;;4.31;88.57
85836;BME280;76292;47.678;19.066;2024-03-08T07:06:05;100542.84;;;4.36;88.56
85836;BME280;76292;47.678;19.066;2024-03-08T07:08:09;100544.56;;;4.43;87.64
85836;BME280;76292;47.678;19.066;2024-03-08T07:10:10;100543.56;;;4.51;87.63
85836;BME280;76292;47.678;19.066;2024-03-08T07:12:15;100537.69;;;4.54;86.87
85836;BME280;76292;47.678;19.066;2024-03-08T07:14:18;100540.84;;;4.51;86.77
85836;BME280;76292;47.678;19.066;2024-03-08T07:16:18;100544.38;;;4.51;86.26
85836;BME280;76292;47.678;19.066;2024-03-08T07:18:19;100548.34;;;4.49;87.97
85836;BME280;76292;47.678;19.066;2024-03-08T07:20:20;100542.13;;;4.61;87.77
85836;BME280;76292;47.678;19.066;2024-03-08T07:22:23;100550.53;;;4.67;85.99
85836;BME280;76292;47.678;19.066;2024-03-08T07:24:26;100546.13;;;4.72;87.47
85836;BME280;76292;47.678;19.066;2024-03-08T07:26:45;100541.09;;;4.76;87.21
85836;BME280;76292;47.678;19.066;2024-03-08T07:28:49;100546.81;;;4.87;87.46
85836;BME280;76292;47.678;19.066;2024-03-08T07:30:49;100546.19;;;4.85;85.66
85836;BME280;76292;47.678;19.066;2024-03-08T07:33:00;100548.25;;;4.83;86.65
85836;BME280;76292;47.678;19.066;2024-03-08T07:35:02;100546.19;;;4.85;86.69
85836;BME280;76292;47.678;19.066;2024-03-08T07:37:04;100556.91;;;4.87;86.09
85836;BME280;76292;47.678;19.066;2024-03-08T07:39:04;100561.72;;;4.85;85.80
85836;BME280;76292;47.678;19.066;2024-03-08T07:41:09;100559.63;;;4.87;86.11
85836;BME280;76292;47.678;19.066;2024-03-08T07:43:10;100562.97;;;4.89;85.70
85836;BME280;76292;47.678;19.066;2024-03-08T07:45:16;100557.94;;;4.79;86.20
85836;BME280;76292;47.678;19.066;2024-03-08T07:47:16;100556.22;;;4.72;85.78
85836;BME280;76292;47.678;19.066;2024-03-08T07:49:20;100564.44;;;4.78;86.60
85836;BME280;76292;47.678;19.066;2024-03-08T07:51:21;100556.66;;;4.75;84.84
85836;BME280;76292;47.678;19.066;2024-03-08T07:53:22;100563.81;;;4.76;85.83
85836;BME280;76292;47.678;19.066;2024-03-08T07:55:24;100560.63;;;4.73;85.49
85836;BME280;76292;47.678;19.066;2024-03-08T07:57:25;100557.53;;;4.82;86.63
85836;BME280;76292;47.678;19.066;2024-03-08T07:59:26;100562.34;;;4.87;85.89
85836;BME280;76292;47.678;19.066;2024-03-08T08:01:26;100558.75;;;4.80;85.02
85836;BME280;76292;47.678;19.066;2024-03-08T08:03:26;100562.97;;;4.76;85.03
85836;BME280;76292;47.678;19.066;2024-03-08T08:05:27;100563.41;;;4.79;84.78
85836;BME280;76292;47.678;19.066;2024-03-08T08:07:30;100560.00;;;4.77;85.06
85836;BME280;76292;47.678;19.066;2024-03-08T08:09:30;100557.50;;;4.76;84.79
85836;BME280;76292;47.678;19.066;2024-03-08T08:11:34;100565.47;;;4.77;85.20
85836;BME280;76292;47.678;19.066;2024-03-08T08:13:35;100561.91;;;4.83;85.37
85836;BME280;76292;47.678;19.066;2024-03-08T08:15:36;100567.41;;;4.90;85.96
85836;BME280;76292;47.678;19.066;2024-03-08T08:17:39;100560.28;;;4.95;86.21
85836;BME280;76292;47.678;19.066;2024-03-08T08:19:45;100564.28;;;5.06;86.37
85836;BME280;76292;47.678;19.066;2024-03-08T08:21:46;100554.81;;;5.08;85.67
85836;BME280;76292;47.678;19.066;2024-03-08T08:23:46;100562.41;;;5.19;85.06
85836;BME280;76292;47.678;19.066;2024-03-08T08:25:47;100564.09;;;5.20;84.17
85836;BME280;76292;47.678;19.066;2024-03-08T08:27:52;100561.78;;;5.17;84.52
85836;BME280;76292;47.678;19.066;2024-03-08T08:29:53;100557.81;;;5.13;85.07
85836;BME280;76292;47.678;19.066;2024-03-08T08:31:59;100561.38;;;5.20;85.41
85836;BME280;76292;47.678;19.066;2024-03-08T08:34:01;100564.28;;;5.06;84.36
85836;BME280;76292;47.678;19.066;2024-03-08T08:36:05;100566.16;;;5.05;84.13
85836;BME280;76292;47.678;19.066;2024-03-08T08:38:05;100573.13;;;5.14;84.14
85836;BME280;76292;47.678;19.066;2024-03-08T08:40:10;100568.72;;;5.20;84.13
85836;BME280;76292;47.678;19.066;2024-03-08T08:42:14;100566.84;;;5.20;83.84
85836;BME280;76292;47.678;19.066;2024-03-08T08:44:14;100566.63;;;5.29;82.77
85836;BME280;76292;47.678;19.066;2024-03-08T08:46:18;100562.84;;;5.30;83.10
85836;BME280;76292;47.678;19.066;2024-03-08T08:48:18;100561.38;;;5.34;83.99
85836;BME280;76292;47.678;19.066;2024-03-08T08:50:21;100564.34;;;5.39;83.81
85836;BME280;76292;47.678;19.066;2024-03-08T08:52:25;100560.53;;;5.46;84.28
85836;BME280;76292;47.678;19.066;2024-03-08T08:54:26;100566.41;;;5.56;83.37
85836;BME280;76292;47.678;19.066;2024-03-08T08:56:30;100552.56;;;5.58;83.82
85836;BME280;76292;47.678;19.066;2024-03-08T08:58:36;100560.09;;;5.62;83.94
85836;BME280;76292;47.678;19.066;2024-03-08T09:00:40;100558.41;;;5.68;82.70
85836;BME280;76292;47.678;19.066;2024-03-08T09:02:41;100562.63;;;5.77;82.22
85836;BME280;76292;47.678;19.066;2024-03-08T09:04:42;100552.94;;;5.81;83.59
85836;BME280;76292;47.678;19.066;2024-03-08T09:06:42;100560.13;;;5.95;83.39
85836;BME280;76292;47.678;19.066;2024-03-08T09:08:44;100560.34;;;5.87;82.47
85836;BME280;76292;47.678;19.066;2024-03-08T09:10:44;100560.94;;;6.02;82.46
85836;BME280;76292;47.678;19.066;2024-03-08T09:12:47;100561.34;;;6.12;82.21
85836;BME280;76292;47.678;19.066;2024-03-08T09:14:47;100560.50;;;6.18;81.71
85836;BME280;76292;47.678;19.066;2024-03-08T09:16:48;100564.25;;;6.24;80.76
85836;BME280;76292;47.678;19.066;2024-03-08T09:18:54;100556.06;;;6.11;80.96
85836;BME280;76292;47.678;19.066;2024-03-08T09:20:56;100561.47;;;6.30;82.38
85836;BME280;76292;47.678;19.066;2024-03-08T09:22:57;100557.94;;;6.30;81.20
85836;BME280;76292;47.678;19.066;2024-03-08T09:24:58;100558.72;;;6.37;80.49
85836;BME280;76292;47.678;19.066;2024-03-08T09:26:58;100559.19;;;6.27;81.14
85836;BME280;76292;47.678;19.066;2024-03-08T09:28:59;100557.22;;;6.48;81.59
85836;BME280;76292;47.678;19.066;2024-03-08T09:30:59;100556.94;;;6.62;80.91
85836;BME280;76292;47.678;19.066;2024-03-08T09:33:01;100549.97;;;6.66;80.37
85836;BME280;76292;47.678;19.066;2024-03-08T09:35:05;100550.56;;;6.75;79.36
85836;BME280;76292;47.678;19.066;2024-03-08T09:37:08;100559.75;;;6.49;80.15
85836;BME280;76292;47.678;19.066;2024-03-08T09:39:09;100549.59;;;6.56;80.92
85836;BME280;76292;47.678;19.066;2024-03-08T09:41:09;100552.06;;;6.64;80.30
85836;BME280;76292;47.678;19.066;2024-03-08T09:43:10;100561.31;;;6.70;80.17
85836;BME280;76292;47.678;19.066;2024-03-08T09:45:12;100553.94;;;6.70;79.74
85836;BME280;76292;47.678;19.066;2024-03-08T09:47:17;100558.97;;;6.80;79.60
85836;BME280;76292;47.678;19.066;2024-03-08T09:49:18;100551.50;;;6.93;79.21
85836;BME280;76292;47.678;19.066;2024-03-08T09:51:27;100557.94;;;7.12;78.43
85836;BME280;76292;47.678;19.066;2024-03-08T09:53:30;100555.09;;;7.25;78.03
85836;BME280;76292;47.678;19.066;2024-03-08T09:55:31;100554.22;;;7.31;77.75
85836;BME280;76292;47.678;19.066;2024-03-08T09:57:36;100557.75;;;7.07;78.73
85836;BME280;76292;47.678;19.066;2024-03-08T09:59:36;100555.88;;;7.01;80.58
85836;BME280;76292;47.678;19.066;2024-03-08T10:01:42;100558.75;;;7.13;79.15
85836;BME280;76292;47.678;19.066;2024-03-08T10:03:42;100561.44;;;6.94;79.83
85836;BME280;76292;47.678;19.066;2024-03-08T10:05:42;100563.50;;;6.99;80.18
85836;BME280;76292;47.678;19.066;2024-03-08T10:07:44;100560.34;;;6.95;79.50
85836;BME280;76292;47.678;19.066;2024-03-08T10:09:45;100565.31;;;6.74;79.97
85836;BME280;76292;47.678;19.066;2024-03-08T10:11:50;100573.00;;;6.52;80.31
85836;BME280;76292;47.678;19.066;2024-03-08T10:13:50;100560.34;;;6.58;81.16
85836;BME280;76292;47.678;19.066;2024-03-08T10:15:51;100563.53;;;6.48;81.54
85836;BME280;76292;47.678;19.066;2024-03-08T10:17:52;100567.56;;;6.39;80.41
85836;BME280;76292;47.678;19.066;2024-03-08T10:19:53;100570.78;;;6.29;81.94
85836;BME280;76292;47.678;19.066;2024-03-08T10:21:53;100570.97;;;6.34;81.20
85836;BME280;76292;47.678;19.066;2024-03-08T10:23:58;100566.78;;;6.25;80.89
85836;BME280;76292;47.678;19.066;2024-03-08T10:28:11;100575.78;;;6.39;82.81
85836;BME280;76292;47.678;19.066;2024-03-08T10:30:14;100572.19;;;6.38;81.46
85836;BME280;76292;47.678;19.066;2024-03-08T10:32:16;100569.09;;;6.28;83.28
85836;BME280;76292;47.678;19.066;2024-03-08T10:34:19;100569.28;;;6.33;83.46
85836;BME280;76292;47.678;19.066;2024-03-08T10:36:22;100570.53;;;6.38;80.84
85836;BME280;76292;47.678;19.066;2024-03-08T10:38:26;100572.63;;;6.42;82.10
85836;BME280;76292;47.678;19.066;2024-03-08T10:40:29;100568.81;;;6.50;81.62